Klondyke, Arizona
Current Conditions -  °F | °C
As of 5:51 AM on Friday 28 Nov 2014 (Local Time) from KSAD Reporting Station
Clear Clear  
Wind Chill: 44°   Ceiling: Unl
Heat Index: 49°   Visibility: 10mi
Dew Point: 22°   Wind: 12mph
Humidity: 35%   Direction: 120°ESE
Pressure: 30.19"   Gusts: NA
Location:  32.5598°N, 110.08°W
Report Text: KSAD 281251Z AUTO 12010KT 10SM CLR 09/M06 A3019 RMK AO2 SLP204 T00941056
Loading
Personal Weather Stations






























Interactive Weather Map New forecast layout! Learn more

10-Day Weather Forecast

Advertisements
Track Severe Weather on mobile